createdAt,value
2018-07-23T06:02:05.487Z,1017.58
2018-07-23T06:03:32.367Z,1017.59
2018-07-23T06:04:59.432Z,1017.58
2018-07-23T06:06:26.583Z,1017.57
2018-07-23T06:07:53.877Z,1017.56
2018-07-23T06:09:21.154Z,1017.59
2018-07-23T06:10:48.576Z,1017.65
2018-07-23T06:12:15.779Z,1017.64
2018-07-23T06:13:43.037Z,1017.67
2018-07-23T06:15:10.539Z,1017.69
2018-07-23T06:16:37.807Z,1017.67
2018-07-23T06:18:05.052Z,1017.67
2018-07-23T06:19:32.253Z,1017.69
2018-07-23T06:20:59.381Z,1017.70
2018-07-23T06:22:26.726Z,1017.73
2018-07-23T06:23:54.390Z,1017.74
2018-07-23T06:25:21.212Z,1017.77
2018-07-23T06:26:48.818Z,1017.76
2018-07-23T06:28:16.314Z,1017.79
2018-07-23T06:29:43.517Z,1017.84
2018-07-23T06:40:23.146Z,1017.86
2018-07-23T06:41:49.987Z,1017.85
2018-07-23T06:44:14.922Z,1017.81
2018-07-23T06:45:41.661Z,1017.82
2018-07-23T06:47:27.948Z,1017.82
2018-07-23T06:49:43.434Z,1017.84
2018-07-23T06:51:09.959Z,1017.82
2018-07-23T06:52:37.164Z,1017.85
2018-07-23T06:54:04.731Z,1017.87
2018-07-23T06:55:32.068Z,1017.85
2018-07-23T06:56:59.494Z,1017.85
2018-07-23T06:58:26.974Z,1017.82
2018-07-23T06:59:54.457Z,1017.83
2018-07-23T07:01:22.085Z,1017.82
2018-07-23T07:02:49.229Z,1017.82
2018-07-23T07:04:16.552Z,1017.87
2018-07-23T07:05:43.859Z,1017.89
2018-07-23T07:07:11.516Z,1017.88
2018-07-23T07:08:38.308Z,1017.90
2018-07-23T07:10:05.684Z,1017.91
2018-07-23T07:11:32.924Z,1017.92
2018-07-23T07:12:59.819Z,1017.98
2018-07-23T07:14:27.094Z,1017.99
2018-07-23T07:15:54.320Z,1018.01
2018-07-23T07:17:21.992Z,1018.01
2018-07-23T07:18:49.613Z,1017.99
2018-07-23T07:20:17.075Z,1018.00
2018-07-23T07:21:44.686Z,1018.01
2018-07-23T07:23:11.820Z,1018.01
2018-07-23T07:24:39.001Z,1018.05
2018-07-23T07:26:06.423Z,1018.08
2018-07-23T07:27:33.961Z,1018.13
2018-07-23T07:29:01.487Z,1018.16
2018-07-23T07:30:28.759Z,1018.17
2018-07-23T07:31:56.295Z,1018.17
2018-07-23T07:33:23.705Z,1018.18
2018-07-23T07:34:50.608Z,1018.18
2018-07-23T07:36:18.003Z,1018.17
2018-07-23T07:37:45.225Z,1018.18
2018-07-23T07:39:12.755Z,1018.17
2018-07-23T07:40:40.369Z,1018.16
2018-07-23T07:42:07.942Z,1018.19
2018-07-23T07:43:35.057Z,1018.20
2018-07-23T07:45:02.335Z,1018.22
2018-07-23T07:46:29.845Z,1018.19
2018-07-23T07:47:57.258Z,1018.18
2018-07-23T07:49:24.517Z,1018.20
2018-07-23T07:50:51.888Z,1018.23
2018-07-23T07:52:19.440Z,1018.25
2018-07-23T07:53:47.148Z,1018.26
2018-07-23T07:55:14.589Z,1018.24
2018-07-23T07:56:42.107Z,1018.25
2018-07-23T07:58:09.406Z,1018.23
2018-07-23T07:59:36.817Z,1018.24
2018-07-23T08:01:04.356Z,1018.25
2018-07-23T08:02:31.598Z,1018.22
2018-07-23T08:03:58.639Z,1018.23
2018-07-23T08:05:25.892Z,1018.18
2018-07-23T08:06:53.359Z,1018.24
2018-07-23T08:08:20.658Z,1018.25
2018-07-23T08:09:47.680Z,1018.28
2018-07-23T08:11:15.216Z,1018.30
2018-07-23T08:12:41.887Z,1018.30
2018-07-23T08:14:09.391Z,1018.27
2018-07-23T08:15:36.590Z,1018.24
2018-07-23T08:17:04.094Z,1018.27
2018-07-23T08:18:31.349Z,1018.25
2018-07-23T08:19:58.754Z,1018.24
2018-07-23T08:21:26.065Z,1018.25
2018-07-23T08:22:53.113Z,1018.24
2018-07-23T08:24:20.558Z,1018.23
2018-07-23T08:25:48.125Z,1018.25
2018-07-23T08:27:15.655Z,1018.23
2018-07-23T08:28:43.456Z,1018.23
2018-07-23T08:30:11.203Z,1018.28
2018-07-23T08:31:38.513Z,1018.32
2018-07-23T08:33:05.455Z,1018.30
2018-07-23T08:34:32.685Z,1018.32
2018-07-23T08:36:00.282Z,1018.34
2018-07-23T08:37:27.583Z,1018.34
2018-07-23T08:38:54.984Z,1018.32
2018-07-23T08:40:22.452Z,1018.32
2018-07-23T08:41:50.021Z,1018.30
2018-07-23T08:43:16.918Z,1018.35
2018-07-23T08:44:44.228Z,1018.35
2018-07-23T08:46:11.887Z,1018.40
2018-07-23T08:47:39.210Z,1018.38
2018-07-23T08:49:06.657Z,1018.38
2018-07-23T08:50:34.227Z,1018.37
2018-07-23T08:52:01.872Z,1018.40
2018-07-23T08:53:29.092Z,1018.45
2018-07-23T08:54:56.271Z,1018.44
2018-07-23T08:56:23.535Z,1018.43
2018-07-23T08:57:51.045Z,1018.43
2018-07-23T08:59:18.367Z,1018.49
2018-07-23T09:00:45.918Z,1018.49
2018-07-23T09:02:12.889Z,1018.51
2018-07-23T09:03:40.482Z,1018.52
2018-07-23T09:05:07.873Z,1018.50
2018-07-23T09:06:35.329Z,1018.49
2018-07-23T09:08:02.596Z,1018.49
2018-07-23T09:09:29.910Z,1018.51
2018-07-23T09:10:57.126Z,1018.54
2018-07-23T09:12:24.606Z,1018.55
2018-07-23T09:13:52.168Z,1018.57
2018-07-23T09:15:19.507Z,1018.62
2018-07-23T09:16:47.098Z,1018.61
2018-07-23T09:18:14.816Z,1018.60
2018-07-23T09:19:42.456Z,1018.59
2018-07-23T09:21:10.140Z,1018.59
2018-07-23T09:22:37.635Z,1018.59
2018-07-23T09:24:05.027Z,1018.58
2018-07-23T09:25:32.696Z,1018.57
2018-07-23T09:27:00.050Z,1018.60
2018-07-23T09:28:28.469Z,1018.62
2018-07-23T09:29:55.148Z,1018.60
2018-07-23T09:31:22.424Z,1018.62
2018-07-23T09:32:49.911Z,1018.64
2018-07-23T09:34:17.588Z,1018.61
2018-07-23T09:35:44.984Z,1018.61
2018-07-23T09:37:12.660Z,1018.56
2018-07-23T09:38:40.075Z,1018.57
2018-07-23T09:40:07.313Z,1018.58
2018-07-23T09:41:34.999Z,1018.53
2018-07-23T09:43:02.235Z,1018.53
2018-07-23T09:44:29.775Z,1018.51
2018-07-23T09:45:57.214Z,1018.51
2018-07-23T09:47:24.852Z,1018.52
2018-07-23T09:48:52.475Z,1018.54
2018-07-23T09:50:20.117Z,1018.56
2018-07-23T09:51:47.706Z,1018.51
2018-07-23T09:53:15.131Z,1018.53
2018-07-23T09:54:42.412Z,1018.57
2018-07-23T09:56:09.797Z,1018.54
2018-07-23T09:57:37.443Z,1018.54
2018-07-23T09:59:05.041Z,1018.53
2018-07-23T10:00:32.452Z,1018.50
2018-07-23T10:01:59.924Z,1018.50
2018-07-23T10:03:27.269Z,1018.46
2018-07-23T10:04:54.634Z,1018.45
2018-07-23T10:06:22.149Z,1018.45
2018-07-23T10:07:49.902Z,1018.41
2018-07-23T10:09:17.435Z,1018.47
2018-07-23T10:10:44.924Z,1018.46
2018-07-23T10:12:12.465Z,1018.43
2018-07-23T10:13:40.135Z,1018.42
2018-07-23T10:15:07.517Z,1018.48
2018-07-23T10:16:35.236Z,1018.43
2018-07-23T10:18:02.678Z,1018.43
2018-07-23T10:19:29.945Z,1018.46
2018-07-23T10:20:57.575Z,1018.48
2018-07-23T10:22:25.090Z,1018.47
2018-07-23T10:23:52.694Z,1018.50
2018-07-23T10:25:20.162Z,1018.49
2018-07-23T10:26:47.659Z,1018.51
2018-07-23T10:28:15.162Z,1018.50
2018-07-23T10:29:42.733Z,1018.47
2018-07-23T10:31:10.241Z,1018.44
2018-07-23T10:32:37.551Z,1018.44
2018-07-23T10:34:04.809Z,1018.40
2018-07-23T10:35:32.426Z,1018.43
2018-07-23T10:36:59.612Z,1018.39
2018-07-23T10:38:26.928Z,1018.37
2018-07-23T10:39:53.908Z,1018.42
2018-07-23T10:41:21.235Z,1018.41
2018-07-23T10:42:48.349Z,1018.37
2018-07-23T10:44:15.907Z,1018.42
2018-07-23T10:45:43.673Z,1018.40
2018-07-23T10:47:11.382Z,1018.42
2018-07-23T10:48:38.045Z,1018.42
2018-07-23T10:50:05.703Z,1018.42
2018-07-23T10:51:32.784Z,1018.42
2018-07-23T10:53:00.187Z,1018.46
2018-07-23T10:54:27.636Z,1018.48
2018-07-23T10:55:55.255Z,1018.47
2018-07-23T10:57:23.041Z,1018.46
2018-07-23T10:58:50.366Z,1018.47
2018-07-23T11:00:18.133Z,1018.43
2018-07-23T11:01:45.441Z,1018.40
2018-07-23T11:03:13.029Z,1018.40
2018-07-23T11:04:40.475Z,1018.38
2018-07-23T11:06:08.037Z,1018.30
2018-07-23T11:07:35.747Z,1018.30
2018-07-23T11:09:03.262Z,1018.30
2018-07-23T11:10:30.897Z,1018.30
2018-07-23T11:11:58.349Z,1018.32
2018-07-23T11:13:25.961Z,1018.27
2018-07-23T11:14:53.653Z,1018.30
2018-07-23T11:16:21.281Z,1018.30
2018-07-23T11:17:48.926Z,1018.27
2018-07-23T11:19:16.591Z,1018.23
2018-07-23T11:20:44.250Z,1018.22
2018-07-23T11:22:11.858Z,1018.24
2018-07-23T11:23:39.052Z,1018.26
2018-07-23T11:25:38.416Z,1018.21
2018-07-23T11:26:34.387Z,1018.20
2018-07-23T11:28:01.682Z,1018.24
2018-07-23T11:29:29.170Z,1018.25
2018-07-23T11:30:56.561Z,1018.28
2018-07-23T11:32:24.159Z,1018.26
2018-07-23T11:33:51.788Z,1018.26
2018-07-23T11:35:19.470Z,1018.24
2018-07-23T11:36:47.077Z,1018.25
2018-07-23T11:38:14.666Z,1018.26
2018-07-23T11:39:42.055Z,1018.23
2018-07-23T11:41:09.723Z,1018.28
2018-07-23T11:42:37.517Z,1018.23
2018-07-23T11:44:05.156Z,1018.18
2018-07-23T11:45:32.774Z,1018.25
2018-07-23T11:47:00.259Z,1018.17
2018-07-23T11:48:27.862Z,1018.17
2018-07-23T11:49:55.416Z,1018.14
2018-07-23T11:51:23.006Z,1018.13
2018-07-23T11:52:50.386Z,1018.16
2018-07-23T11:54:17.942Z,1018.15
2018-07-23T11:55:45.459Z,1018.17
2018-07-23T11:57:13.060Z,1018.17
2018-07-23T11:58:40.698Z,1018.15
2018-07-23T12:00:08.350Z,1018.16
2018-07-23T12:01:36.004Z,1018.17
2018-07-23T12:03:03.581Z,1018.15
2018-07-23T12:04:31.445Z,1018.15
2018-07-23T12:05:58.708Z,1018.21
2018-07-23T12:07:26.350Z,1018.14
2018-07-23T12:08:54.142Z,1018.17
2018-07-23T12:10:21.548Z,1018.22
2018-07-23T12:11:49.385Z,1018.16
2018-07-23T12:13:17.046Z,1018.19
2018-07-23T12:14:44.760Z,1018.18
2018-07-23T12:16:12.384Z,1018.16
2018-07-23T12:17:40.140Z,1018.15
2018-07-23T12:19:07.516Z,1018.14
2018-07-23T12:20:34.640Z,1018.14
2018-07-23T12:22:02.331Z,1018.18
2018-07-23T12:23:29.453Z,1018.18
2018-07-23T12:24:57.009Z,1018.18
2018-07-23T12:26:24.396Z,1018.16
2018-07-23T12:27:51.948Z,1018.18
2018-07-23T12:29:19.526Z,1018.16
2018-07-23T12:30:47.011Z,1018.11
2018-07-23T12:32:14.249Z,1018.09
2018-07-23T12:33:41.721Z,1018.12
2018-07-23T12:35:09.004Z,1018.11
2018-07-23T12:36:36.704Z,1018.08
2018-07-23T12:38:04.190Z,1018.15
2018-07-23T12:39:31.567Z,1018.16
2018-07-23T12:40:58.707Z,1018.14
2018-07-23T12:42:26.274Z,1018.14
2018-07-23T12:43:54.120Z,1018.13
2018-07-23T12:45:21.495Z,1018.11
2018-07-23T12:46:49.107Z,1018.10
2018-07-23T12:48:16.368Z,1018.08
2018-07-23T12:49:43.272Z,1018.12
2018-07-23T12:51:10.756Z,1018.14
2018-07-23T12:52:38.460Z,1018.17
2018-07-23T12:54:06.029Z,1018.11
2018-07-23T12:55:33.748Z,1018.16
2018-07-23T12:57:01.234Z,1018.16
2018-07-23T12:58:28.727Z,1018.14
2018-07-23T12:59:56.355Z,1018.12
2018-07-23T13:01:23.817Z,1018.14
2018-07-23T13:02:51.408Z,1018.14
2018-07-23T13:04:19.362Z,1018.11
2018-07-23T13:05:46.915Z,1018.11
2018-07-23T13:07:14.219Z,1018.09
2018-07-23T13:08:41.363Z,1018.11
2018-07-23T13:10:09.062Z,1018.07
2018-07-23T13:11:36.502Z,1018.05
2018-07-23T13:13:04.084Z,1018.09
2018-07-23T13:14:31.701Z,1018.10
2018-07-23T13:15:59.486Z,1018.07
2018-07-23T13:17:27.175Z,1018.07
2018-07-23T13:18:54.539Z,1018.07
2018-07-23T13:20:22.128Z,1018.07
2018-07-23T13:21:49.910Z,1018.08
2018-07-23T13:23:17.431Z,1018.09
2018-07-23T13:24:44.804Z,1018.11
2018-07-23T13:26:12.373Z,1018.15
2018-07-23T13:27:39.979Z,1018.18
2018-07-23T13:29:07.631Z,1018.19
2018-07-23T13:30:34.844Z,1018.14
2018-07-23T13:32:02.561Z,1018.14
2018-07-23T13:33:30.129Z,1018.19
2018-07-23T13:34:57.606Z,1018.16
2018-07-23T13:36:24.448Z,1018.20
2018-07-23T13:37:52.218Z,1018.17
2018-07-23T13:39:19.926Z,1018.18
2018-07-23T13:40:47.465Z,1018.13
2018-07-23T13:42:15.074Z,1018.17
2018-07-23T13:43:42.762Z,1018.24
2018-07-23T13:45:10.342Z,1018.23
2018-07-23T13:46:37.788Z,1018.21
2018-07-23T13:48:05.267Z,1018.20
2018-07-23T13:49:32.900Z,1018.21
2018-07-23T13:51:00.247Z,1018.22
2018-07-23T13:52:27.788Z,1018.20
2018-07-23T13:53:55.379Z,1018.20
2018-07-23T13:55:22.894Z,1018.19
2018-07-23T13:56:50.516Z,1018.21
2018-07-23T13:58:18.246Z,1018.23
2018-07-23T13:59:45.922Z,1018.23
2018-07-23T14:01:13.519Z,1018.27
2018-07-23T14:02:41.131Z,1018.30
2018-07-23T14:04:08.669Z,1018.26
2018-07-23T14:05:35.991Z,1018.29
2018-07-23T14:07:03.467Z,1018.24
2018-07-23T14:08:31.004Z,1018.25
2018-07-23T14:09:58.595Z,1018.28
2018-07-23T14:11:26.078Z,1018.31
2018-07-23T14:12:53.659Z,1018.32
2018-07-23T14:14:21.215Z,1018.30
2018-07-23T14:15:48.912Z,1018.28
2018-07-23T14:17:16.594Z,1018.30
2018-07-23T14:18:44.211Z,1018.30
2018-07-23T14:20:11.944Z,1018.30
2018-07-23T14:21:39.354Z,1018.30
2018-07-23T14:23:06.857Z,1018.28
2018-07-23T14:24:34.432Z,1018.30
2018-07-23T14:26:01.909Z,1018.29
2018-07-23T14:27:29.576Z,1018.25
2018-07-23T14:28:56.389Z,1018.27
2018-07-23T14:30:24.254Z,1018.31
2018-07-23T14:31:51.599Z,1018.30
2018-07-23T14:33:19.115Z,1018.31
2018-07-23T14:34:46.788Z,1018.27
2018-07-23T14:36:14.331Z,1018.28
2018-07-23T14:37:42.110Z,1018.30
2018-07-23T14:39:09.741Z,1018.32
2018-07-23T14:40:37.365Z,1018.33
2018-07-23T14:42:05.001Z,1018.34
2018-07-23T14:43:32.616Z,1018.35
2018-07-23T14:45:00.206Z,1018.32
2018-07-23T14:46:27.704Z,1018.31
2018-07-23T14:47:55.190Z,1018.27
2018-07-23T14:49:22.820Z,1018.26
2018-07-23T14:50:50.327Z,1018.22
2018-07-23T14:52:18.051Z,1018.28
2018-07-23T14:53:45.569Z,1018.28
2018-07-23T14:55:13.103Z,1018.29
2018-07-23T14:56:40.747Z,1018.30
2018-07-23T14:58:08.326Z,1018.31
2018-07-23T14:59:35.864Z,1018.31
2018-07-23T15:01:03.512Z,1018.32
2018-07-23T15:02:31.044Z,1018.32
2018-07-23T15:03:58.496Z,1018.31
2018-07-23T15:05:25.880Z,1018.31
2018-07-23T15:06:53.556Z,1018.33
2018-07-23T15:08:21.209Z,1018.31
2018-07-23T15:09:49.144Z,1018.31
2018-07-23T15:11:16.418Z,1018.32
2018-07-23T15:12:43.596Z,1018.32
2018-07-23T15:14:10.989Z,1018.32
2018-07-23T15:15:38.624Z,1018.31
2018-07-23T15:17:05.980Z,1018.32
2018-07-23T15:18:33.648Z,1018.32
2018-07-23T15:20:00.941Z,1018.32
2018-07-23T15:21:28.426Z,1018.32
2018-07-23T15:22:56.001Z,1018.35
2018-07-23T15:24:23.541Z,1018.36
2018-07-23T15:25:51.204Z,1018.34
2018-07-23T15:27:18.864Z,1018.37
2018-07-23T15:28:46.460Z,1018.36
2018-07-23T15:30:14.124Z,1018.35
2018-07-23T15:31:42.009Z,1018.41
2018-07-23T15:33:09.657Z,1018.38
2018-07-23T15:34:36.825Z,1018.38
2018-07-23T15:36:04.516Z,1018.36
2018-07-23T15:37:32.103Z,1018.41
2018-07-23T15:38:59.601Z,1018.41
2018-07-23T15:40:27.110Z,1018.42
2018-07-23T15:41:54.399Z,1018.40
2018-07-23T15:43:22.088Z,1018.38
2018-07-23T15:44:49.789Z,1018.37
2018-07-23T15:46:16.966Z,1018.36
2018-07-23T15:47:45.594Z,1018.37
2018-07-23T15:49:11.999Z,1018.37
2018-07-23T15:50:39.695Z,1018.40
2018-07-23T15:52:07.272Z,1018.41
2018-07-23T15:53:34.907Z,1018.40
2018-07-23T15:55:02.341Z,1018.42
2018-07-23T15:56:29.856Z,1018.43
2018-07-23T15:57:57.393Z,1018.41
2018-07-23T15:59:24.964Z,1018.39
2018-07-23T16:00:52.782Z,1018.39
2018-07-23T16:02:20.307Z,1018.38
2018-07-23T16:03:47.813Z,1018.38
2018-07-23T16:05:15.430Z,1018.36
2018-07-23T16:06:43.029Z,1018.38
2018-07-23T16:08:10.569Z,1018.38
2018-07-23T16:09:38.280Z,1018.40
2018-07-23T16:11:05.839Z,1018.37
2018-07-23T16:12:33.416Z,1018.36
2018-07-23T16:14:00.930Z,1018.39
2018-07-23T16:15:28.384Z,1018.34
2018-07-23T16:16:55.639Z,1018.35
2018-07-23T16:18:22.974Z,1018.35
2018-07-23T16:19:50.624Z,1018.34
2018-07-23T16:21:17.747Z,1018.33
2018-07-23T16:22:45.165Z,1018.32
2018-07-23T16:24:12.779Z,1018.33
2018-07-23T16:25:40.303Z,1018.33
2018-07-23T16:27:07.935Z,1018.31
2018-07-23T16:28:35.320Z,1018.31
2018-07-23T16:30:02.759Z,1018.33
2018-07-23T16:31:30.374Z,1018.30
2018-07-23T16:32:57.992Z,1018.30
2018-07-23T16:34:24.941Z,1018.28
2018-07-23T16:35:52.466Z,1018.27
2018-07-23T16:37:19.929Z,1018.28
2018-07-23T16:38:47.128Z,1018.25
2018-07-23T16:40:14.697Z,1018.25
2018-07-23T16:41:42.212Z,1018.22
2018-07-23T16:43:09.474Z,1018.21
2018-07-23T16:44:37.125Z,1018.20
2018-07-23T16:46:04.815Z,1018.19
2018-07-23T16:47:32.407Z,1018.20
2018-07-23T16:48:59.963Z,1018.21
2018-07-23T16:50:27.560Z,1018.21
2018-07-23T16:51:54.894Z,1018.22
2018-07-23T16:53:22.377Z,1018.22
2018-07-23T16:54:49.972Z,1018.20
2018-07-23T16:56:17.488Z,1018.20
2018-07-23T16:57:45.066Z,1018.21
2018-07-23T16:59:12.626Z,1018.20
2018-07-23T17:00:40.264Z,1018.20
2018-07-23T17:02:07.952Z,1018.18
2018-07-23T17:03:35.433Z,1018.17
2018-07-23T17:05:03.041Z,1018.18
2018-07-23T17:06:30.815Z,1018.18
2018-07-23T17:07:58.273Z,1018.20
2018-07-23T17:09:25.736Z,1018.21
2018-07-23T17:10:53.418Z,1018.21
2018-07-23T17:12:20.879Z,1018.19
2018-07-23T17:13:48.456Z,1018.22
2018-07-23T17:15:16.102Z,1018.21
2018-07-23T17:16:43.673Z,1018.23
2018-07-23T17:18:11.429Z,1018.23
2018-07-23T17:19:38.878Z,1018.25
2018-07-23T17:21:06.008Z,1018.25
2018-07-23T17:22:33.439Z,1018.24
2018-07-23T17:24:01.089Z,1018.24
2018-07-23T17:25:28.617Z,1018.24
2018-07-23T17:26:56.250Z,1018.25
2018-07-23T17:28:23.509Z,1018.24
2018-07-23T17:29:51.134Z,1018.27
2018-07-23T17:31:18.654Z,1018.25
2018-07-23T17:32:46.227Z,1018.23
2018-07-23T17:34:13.662Z,1018.24
2018-07-23T17:35:41.190Z,1018.29
2018-07-23T17:37:08.623Z,1018.30
2018-07-23T17:38:36.346Z,1018.28
2018-07-23T17:40:03.972Z,1018.27
2018-07-23T17:41:31.625Z,1018.28
2018-07-23T17:42:58.819Z,1018.28
2018-07-23T17:44:26.388Z,1018.30
2018-07-23T17:45:53.743Z,1018.28
2018-07-23T17:47:21.430Z,1018.29
2018-07-23T17:48:48.752Z,1018.29
2018-07-23T17:50:16.474Z,1018.29
2018-07-23T17:51:44.080Z,1018.29
2018-07-23T17:53:11.691Z,1018.32
2018-07-23T17:54:39.285Z,1018.32
2018-07-23T17:56:06.938Z,1018.34
2018-07-23T17:57:34.419Z,1018.36
2018-07-23T17:59:01.970Z,1018.36
2018-07-23T18:00:29.255Z,1018.36
2018-07-23T18:01:56.775Z,1018.39
2018-07-23T18:03:24.429Z,1018.40
2018-07-23T18:04:51.872Z,1018.42
2018-07-23T18:06:19.370Z,1018.45
2018-07-23T18:07:46.962Z,1018.47
2018-07-23T18:09:14.549Z,1018.44
2018-07-23T18:10:41.908Z,1018.45
2018-07-23T18:12:09.530Z,1018.47
2018-07-23T18:13:37.191Z,1018.45
2018-07-23T18:15:04.735Z,1018.46
2018-07-23T18:16:32.323Z,1018.47
2018-07-23T18:18:00.140Z,1018.47
2018-07-23T18:19:27.748Z,1018.47
2018-07-23T18:20:55.189Z,1018.49
2018-07-23T18:22:22.824Z,1018.50
2018-07-23T18:23:50.138Z,1018.52
2018-07-23T18:25:17.886Z,1018.51
2018-07-23T18:26:45.339Z,1018.49
2018-07-23T18:28:12.796Z,1018.52
2018-07-23T18:29:40.487Z,1018.52
2018-07-23T18:31:07.902Z,1018.52
2018-07-23T18:32:35.555Z,1018.53
2018-07-23T18:34:04.037Z,1018.54
2018-07-23T18:35:30.632Z,1018.56
2018-07-23T18:36:58.079Z,1018.57
2018-07-23T18:38:25.846Z,1018.58
2018-07-23T18:39:53.409Z,1018.56
2018-07-23T18:41:21.024Z,1018.54
2018-07-23T18:42:48.648Z,1018.53
2018-07-23T18:44:16.036Z,1018.53
2018-07-23T18:45:43.677Z,1018.56
2018-07-23T18:47:11.204Z,1018.56
2018-07-23T18:48:38.817Z,1018.58
2018-07-23T18:50:06.276Z,1018.57
2018-07-23T18:51:33.911Z,1018.58
2018-07-23T18:53:01.441Z,1018.57
2018-07-23T18:54:29.037Z,1018.56
2018-07-23T18:55:56.646Z,1018.58
2018-07-23T18:57:24.225Z,1018.59
2018-07-23T18:58:51.555Z,1018.64
2018-07-23T19:00:18.957Z,1018.65
2018-07-23T19:01:46.681Z,1018.66
2018-07-23T19:03:14.243Z,1018.70
2018-07-23T19:04:41.813Z,1018.71
2018-07-23T19:06:09.383Z,1018.72
2018-07-23T19:07:36.857Z,1018.74
2018-07-23T19:09:04.424Z,1018.78
2018-07-23T19:10:32.009Z,1018.79
2018-07-23T19:11:59.567Z,1018.84
2018-07-23T19:13:27.058Z,1018.87
2018-07-23T19:14:54.686Z,1018.91
2018-07-23T19:16:22.253Z,1018.93
2018-07-23T19:17:49.842Z,1018.94
2018-07-23T19:19:17.334Z,1018.94
2018-07-23T19:20:44.867Z,1018.94
2018-07-23T19:22:12.569Z,1018.94
2018-07-23T19:23:40.139Z,1018.96
2018-07-23T19:25:07.712Z,1018.94
2018-07-23T19:26:35.375Z,1018.96
2018-07-23T19:28:02.495Z,1018.96
2018-07-23T19:29:29.988Z,1019.00
2018-07-23T19:30:57.504Z,1018.99
2018-07-23T19:32:25.007Z,1019.00
2018-07-23T19:33:52.546Z,1018.99
2018-07-23T19:35:20.249Z,1018.99
2018-07-23T19:36:47.792Z,1018.98
2018-07-23T19:38:15.472Z,1018.98
2018-07-23T19:39:42.861Z,1018.99
2018-07-23T19:41:10.636Z,1019.00
2018-07-23T19:42:37.845Z,1019.00
2018-07-23T19:44:05.434Z,1019.03
2018-07-23T19:45:32.815Z,1019.04
2018-07-23T19:47:00.226Z,1019.07
2018-07-23T19:48:27.708Z,1019.06
2018-07-23T19:49:54.991Z,1019.09
2018-07-23T19:51:22.543Z,1019.11
2018-07-23T19:52:50.045Z,1019.10
2018-07-23T19:54:17.537Z,1019.10
2018-07-23T19:55:45.053Z,1019.10
2018-07-23T19:57:12.405Z,1019.10
2018-07-23T19:58:40.158Z,1019.08
2018-07-23T20:00:07.530Z,1019.08
2018-07-23T20:01:35.064Z,1019.09
2018-07-23T20:03:02.418Z,1019.09
2018-07-23T20:04:29.685Z,1019.09
2018-07-23T20:05:57.282Z,1019.12
2018-07-23T20:07:24.672Z,1019.14
2018-07-23T20:08:52.050Z,1019.17
2018-07-23T20:10:19.463Z,1019.16
2018-07-23T20:11:46.996Z,1019.18
2018-07-23T20:13:14.491Z,1019.17
2018-07-23T20:14:41.927Z,1019.15
2018-07-23T20:16:09.605Z,1019.16
2018-07-23T20:17:37.079Z,1019.11
2018-07-23T20:19:04.428Z,1019.11
2018-07-23T20:20:31.802Z,1019.11
2018-07-23T20:21:59.124Z,1019.07
2018-07-23T20:23:26.667Z,1019.06
2018-07-23T20:24:54.220Z,1019.03
2018-07-23T20:26:21.751Z,1019.02
2018-07-23T20:27:49.334Z,1019.03
2018-07-23T20:29:16.797Z,1019.00
2018-07-23T20:30:44.310Z,1018.99
2018-07-23T20:32:11.932Z,1018.98
2018-07-23T20:33:39.578Z,1019.01
2018-07-23T20:35:07.055Z,1019.01
2018-07-23T20:36:34.535Z,1019.00
2018-07-23T20:38:02.817Z,1019.02
2018-07-23T20:39:29.109Z,1019.04
2018-07-23T20:40:56.514Z,1019.01
2018-07-23T20:42:23.959Z,1019.00
2018-07-23T20:43:51.500Z,1018.99
2018-07-23T20:45:18.729Z,1019.00
2018-07-23T20:46:46.092Z,1019.01
2018-07-23T20:48:13.457Z,1018.99
2018-07-23T20:49:40.971Z,1018.99
2018-07-23T20:51:08.560Z,1019.00
2018-07-23T20:52:36.181Z,1018.99
2018-07-23T20:54:03.882Z,1018.99
2018-07-23T20:55:31.306Z,1019.00
2018-07-23T20:56:58.852Z,1019.01
2018-07-23T20:58:26.198Z,1019.03
2018-07-23T20:59:53.830Z,1019.05
2018-07-23T21:01:21.416Z,1019.07
2018-07-23T21:02:49.056Z,1019.10
2018-07-23T21:04:16.323Z,1019.12
2018-07-23T21:05:43.892Z,1019.13
2018-07-23T21:07:11.456Z,1019.13
2018-07-23T21:08:38.875Z,1019.11
2018-07-23T21:10:06.492Z,1019.12
2018-07-23T21:11:33.926Z,1019.14
2018-07-23T21:13:01.376Z,1019.15
2018-07-23T21:14:28.785Z,1019.15
2018-07-23T21:15:56.363Z,1019.17
2018-07-23T21:17:23.648Z,1019.18
2018-07-23T21:18:51.287Z,1019.19
2018-07-23T21:20:18.681Z,1019.21
2018-07-23T21:21:45.942Z,1019.22
2018-07-23T21:23:13.410Z,1019.22
2018-07-23T21:24:40.787Z,1019.22
2018-07-23T21:26:08.229Z,1019.20
2018-07-23T21:27:35.781Z,1019.22
2018-07-23T21:29:02.942Z,1019.21
2018-07-23T21:30:30.544Z,1019.20
2018-07-23T21:31:58.092Z,1019.18
2018-07-23T21:33:25.332Z,1019.20
2018-07-23T21:34:52.686Z,1019.21
2018-07-23T21:36:19.910Z,1019.20
2018-07-23T21:37:47.351Z,1019.19
2018-07-23T21:39:14.904Z,1019.18
2018-07-23T21:40:42.416Z,1019.20
2018-07-23T21:42:09.863Z,1019.18
2018-07-23T21:43:37.406Z,1019.17
2018-07-23T21:45:04.946Z,1019.17
2018-07-23T21:46:32.340Z,1019.16
2018-07-23T21:47:59.898Z,1019.18
2018-07-23T21:49:26.915Z,1019.16
2018-07-23T21:50:54.544Z,1019.16
2018-07-23T21:52:22.249Z,1019.16
2018-07-23T21:53:49.920Z,1019.14
2018-07-23T21:55:17.375Z,1019.11
2018-07-23T21:59:58.529Z,1019.12
2018-07-23T22:01:25.279Z,1019.13
2018-07-23T22:02:52.478Z,1019.13
2018-07-23T22:04:19.983Z,1019.13
2018-07-23T22:05:47.458Z,1019.16
2018-07-23T22:07:15.102Z,1019.17
2018-07-23T22:08:42.979Z,1019.20
2018-07-23T22:10:10.342Z,1019.24
2018-07-23T22:11:38.077Z,1019.25
2018-07-23T22:13:05.486Z,1019.26
2018-07-23T22:14:32.777Z,1019.26
2018-07-23T22:16:00.068Z,1019.26
2018-07-23T22:17:27.525Z,1019.26
2018-07-23T22:18:54.869Z,1019.26
2018-07-23T22:20:22.301Z,1019.28
2018-07-23T22:21:49.706Z,1019.30
2018-07-23T22:23:17.015Z,1019.29
2018-07-23T22:24:44.764Z,1019.29
2018-07-23T22:26:11.958Z,1019.30
2018-07-23T22:27:39.449Z,1019.33
2018-07-23T22:29:07.146Z,1019.31
2018-07-23T22:30:34.772Z,1019.32
2018-07-23T22:32:02.021Z,1019.34
2018-07-23T22:33:29.545Z,1019.36
2018-07-23T22:34:57.008Z,1019.36
2018-07-23T22:36:24.762Z,1019.39
2018-07-23T22:37:52.382Z,1019.41
2018-07-23T22:39:19.863Z,1019.42
2018-07-23T22:40:47.494Z,1019.41
2018-07-23T22:42:14.916Z,1019.41
2018-07-23T22:43:42.642Z,1019.41
2018-07-23T22:45:10.133Z,1019.41
2018-07-23T22:46:37.708Z,1019.42
2018-07-23T22:48:04.891Z,1019.43
2018-07-23T22:49:32.385Z,1019.43
2018-07-23T22:50:59.703Z,1019.44
2018-07-23T22:52:27.230Z,1019.43
2018-07-23T22:57:47.149Z,1019.44
2018-07-23T22:59:14.097Z,1019.46
2018-07-23T23:00:41.271Z,1019.47
2018-07-23T23:02:08.610Z,1019.46
2018-07-23T23:03:36.049Z,1019.43
2018-07-23T23:05:03.599Z,1019.42
2018-07-23T23:06:30.732Z,1019.43
2018-07-23T23:07:58.469Z,1019.44
2018-07-23T23:09:25.818Z,1019.43
2018-07-23T23:10:53.431Z,1019.43
2018-07-23T23:12:21.052Z,1019.42
2018-07-23T23:13:48.480Z,1019.41
2018-07-23T23:15:15.959Z,1019.40
2018-07-23T23:16:43.613Z,1019.40
2018-07-23T23:18:11.204Z,1019.40
2018-07-23T23:59:42.210Z,1019.43
